Time;durP1;ratioP1;P1;durP2;ratioP2;P2;SDS_P1;SDS_P2;PMS_P1;PMS_P2;Temp;Humidity;BMP_temperature;BMP_pressure;BME280_temperature;BME280_humidity;BME280_pressure;Samples;Min_cycle;Max_cycle;Signal;HPM_P1;HPM_P2
2021/06/19 00:02:27;;;;;;;19.13;7.23;;;20.30;99.90;;;;;;21140472;28;20047;-84
2021/06/19 00:12:28;;;;;;;12.03;6.87;;;20.20;99.90;;;;;;21120356;28;20085;-82
2021/06/19 00:22:28;;;;;;;17.50;6.50;;;20.10;99.90;;;;;;21140885;28;20581;-83
2021/06/19 00:32:29;;;;;;;15.20;7.87;;;20.00;99.90;;;;;;21090493;28;20036;-84
2021/06/19 00:42:30;;;;;;;18.03;8.80;;;19.90;99.90;;;;;;21133650;28;20032;-84
2021/06/19 00:52:31;;;;;;;18.23;8.77;;;19.50;99.90;;;;;;21167374;28;20035;-84
2021/06/19 01:02:32;;;;;;;25.07;8.27;;;19.50;99.90;;;;;;21151148;28;20047;-81
2021/06/19 01:12:34;;;;;;;11.27;7.53;;;19.70;99.90;;;;;;21174509;28;20401;-78
2021/06/19 01:22:36;;;;;;;;;;;19.60;99.90;;;;;;21199595;28;20050;-78
2021/06/19 01:32:39;;;;;;;10.57;7.30;;;19.70;99.90;;;;;;21204190;27;19936;-77
2021/06/19 01:42:42;;;;;;;14.77;7.53;;;19.50;99.90;;;;;;21209715;28;20069;-79
2021/06/19 01:52:43;;;;;;;13.27;8.30;;;19.40;99.90;;;;;;21211283;28;20051;-80
2021/06/19 02:02:45;;;;;;;20.33;9.17;;;18.70;99.90;;;;;;21212909;28;20043;-78
2021/06/19 02:12:47;;;;;;;12.40;8.47;;;18.60;99.90;;;;;;21212889;28;20289;-79
2021/06/19 02:22:48;;;;;;;16.40;8.48;;;19.00;99.90;;;;;;21180868;28;20042;-78
2021/06/19 02:32:50;;;;;;;12.20;8.13;;;19.30;99.90;;;;;;21194646;27;20051;-79
2021/06/19 02:42:51;;;;;;;15.02;8.70;;;19.40;99.90;;;;;;21186723;28;20105;-80
2021/06/19 02:52:53;;;;;;;15.73;7.67;;;19.30;99.90;;;;;;21218544;28;20444;-78
2021/06/19 03:02:54;;;;;;;20.90;8.52;;;19.30;99.90;;;;;;21198036;28;20282;-80
2021/06/19 03:12:56;;;;;;;15.05;8.57;;;19.40;99.90;;;;;;21216226;28;20039;-78
2021/06/19 03:22:59;;;;;;;16.45;9.45;;;19.30;99.90;;;;;;21226816;27;20576;-79
2021/06/19 03:33:01;;;;;;;13.13;8.55;;;19.20;99.90;;;;;;21204725;28;20053;-80
2021/06/19 03:43:03;;;;;;;14.90;8.63;;;19.50;99.90;;;;;;21184163;28;20558;-77
2021/06/19 03:53:05;;;;;;;12.60;8.20;;;19.60;99.90;;;;;;21201883;28;20476;-77
2021/06/19 04:03:06;;;;;;;13.75;9.32;;;19.70;99.90;;;;;;21216239;28;20044;-79
2021/06/19 04:13:07;;;;;;;16.57;8.00;;;19.80;99.90;;;;;;21199500;28;20051;-78
2021/06/19 04:23:07;;;;;;;13.43;8.73;;;19.90;99.90;;;;;;21210499;28;20062;-80
2021/06/19 04:33:08;;;;;;;16.47;9.53;;;20.00;99.90;;;;;;21216387;28;20043;-79
2021/06/19 04:43:11;;;;;;;11.67;7.80;;;20.20;99.90;;;;;;21215075;28;20036;-78
2021/06/19 04:53:13;;;;;;;15.38;8.05;;;20.40;99.90;;;;;;21207967;28;20494;-80
2021/06/19 05:03:17;;;;;;;15.40;8.45;;;20.70;99.90;;;;;;21191227;28;20043;-79
2021/06/19 05:13:18;;;;;;;24.92;8.70;;;20.90;99.90;;;;;;21190937;28;20027;-78
2021/06/19 05:23:19;;;;;;;14.30;7.33;;;20.80;99.90;;;;;;21210229;28;20085;-80
2021/06/19 05:33:20;;;;;;;19.93;7.90;;;21.00;99.90;;;;;;21208679;28;20039;-79
2021/06/19 05:43:21;;;;;;;17.23;9.10;;;21.30;99.90;;;;;;21193293;28;20490;-79
2021/06/19 05:53:23;;;;;;;13.90;7.60;;;21.30;99.90;;;;;;21214750;28;20120;-79
2021/06/19 06:03:24;;;;;;;10.90;6.55;;;21.50;99.90;;;;;;21234820;27;20044;-78
2021/06/19 06:13:25;;;;;;;15.35;7.15;;;22.10;99.90;;;;;;21198429;28;20044;-79
2021/06/19 06:23:26;;;;;;;14.33;6.83;;;22.20;99.90;;;;;;21223971;28;20039;-79
2021/06/19 06:33:27;;;;;;;17.53;7.30;;;22.50;99.90;;;;;;21207368;28;20040;-80
2021/06/19 06:43:28;;;;;;;10.57;6.63;;;22.90;99.90;;;;;;21226332;28;20059;-77
2021/06/19 06:53:28;;;;;;;13.17;6.50;;;23.20;99.90;;;;;;21228999;28;20059;-80
2021/06/19 07:03:29;;;;;;;13.93;6.83;;;23.70;99.90;;;;;;21175821;23;20420;-84
2021/06/19 07:13:30;;;;;;;14.63;7.10;;;23.80;99.90;;;;;;21157979;28;20079;-84
2021/06/19 07:23:31;;;;;;;10.87;6.73;;;24.30;99.90;;;;;;21190698;27;20466;-84
2021/06/19 07:33:32;;;;;;;13.48;7.82;;;24.50;99.90;;;;;;21196252;27;20796;-84
2021/06/19 07:43:33;;;;;;;;;;;25.10;99.90;;;;;;21201965;27;20124;-85
2021/06/19 07:53:35;;;;;;;14.32;8.35;;;25.10;99.90;;;;;;21202888;27;19911;-84
2021/06/19 08:03:35;;;;;;;15.30;7.70;;;26.00;99.90;;;;;;21270407;27;20107;-85
2021/06/19 08:13:36;;;;;;;9.65;5.93;;;25.40;99.90;;;;;;21224726;27;20050;-86
2021/06/19 08:23:37;;;;;;;12.55;7.50;;;25.90;99.90;;;;;;21223755;27;20027;-85
2021/06/19 08:33:38;;;;;;;15.32;7.93;;;26.30;99.90;;;;;;21208530;27;20046;-83
2021/06/19 08:43:41;;;;;;;15.13;7.47;;;26.10;99.90;;;;;;21208932;27;20074;-84
2021/06/19 08:53:42;;;;;;;13.35;6.90;;;26.20;99.90;;;;;;21257965;27;20039;-84
2021/06/19 09:03:44;;;;;;;18.25;6.78;;;26.80;99.90;;;;;;21281518;27;20138;-84
2021/06/19 09:13:58;;;;;;;14.63;7.82;;;26.40;99.90;;;;;;21216246;27;20039;-85
2021/06/19 09:23:59;;;;;;;15.43;7.18;;;27.40;99.90;;;;;;21252364;27;20039;-86
2021/06/19 09:34:13;;;;;;;11.80;6.95;;;28.10;99.90;;;;;;21245833;27;20102;-84
2021/06/19 09:44:15;;;;;;;11.00;6.68;;;27.90;99.90;;;;;;21306115;27;20039;-85
2021/06/19 09:54:17;;;;;;;12.25;7.20;;;28.70;99.90;;;;;;21297199;27;20038;-87
2021/06/19 10:04:26;;;;;;;12.80;6.03;;;28.70;99.90;;;;;;21271731;27;20039;-86
2021/06/19 10:14:27;;;;;;;11.50;6.10;;;29.60;99.90;;;;;;21270248;27;20051;-87
2021/06/19 10:24:28;;;;;;;14.15;6.63;;;29.40;99.90;;;;;;21320213;27;20509;-86
2021/06/19 10:34:31;;;;;;;11.93;5.32;;;29.50;99.90;;;;;;21333335;27;20154;-85
2021/06/19 10:44:49;;;;;;;11.75;5.60;;;30.40;99.90;;;;;;21312694;27;20034;-86
2021/06/19 10:55:08;;;;;;;14.15;5.47;;;31.50;99.90;;;;;;21336556;27;20038;-86
2021/06/19 11:05:09;;;;;;;8.48;5.25;;;31.50;99.90;;;;;;21303723;27;20052;-85
2021/06/19 11:15:13;;;;;;;12.68;5.00;;;31.00;99.90;;;;;;21243532;27;20043;-86
2021/06/19 11:25:33;;;;;;;16.88;5.90;;;31.50;99.90;;;;;;21284730;27;20035;-86
2021/06/19 11:35:34;;;;;;;8.30;5.28;;;32.30;99.90;;;;;;21243454;27;20133;-87
2021/06/19 11:45:36;;;;;;;14.23;5.22;;;32.50;99.90;;;;;;21223377;27;20440;-86
2021/06/19 11:55:37;;;;;;;16.23;5.90;;;32.40;99.90;;;;;;21214394;27;20088;-87
2021/06/19 12:05:46;;;;;;;11.75;5.35;;;32.70;99.90;;;;;;21214178;27;20043;-85
2021/06/19 12:15:52;;;;;;;16.50;5.07;;;31.50;99.90;;;;;;21226862;27;20038;-84
2021/06/19 12:26:04;;;;;;;40.42;9.48;;;32.40;99.90;;;;;;21220127;27;20130;-86
2021/06/19 12:36:09;;;;;;;9.95;4.97;;;33.80;99.90;;;;;;21229363;27;20499;-85
2021/06/19 12:46:19;;;;;;;11.55;4.70;;;33.50;99.90;;;;;;21289571;27;20716;-86
2021/06/19 12:56:20;;;;;;;12.40;4.90;;;33.80;99.90;;;;;;21299676;22;20047;-78
2021/06/19 13:06:34;;;;;;;17.35;5.22;;;34.10;99.90;;;;;;21220112;27;20114;-78
2021/06/19 13:16:40;;;;;;;18.15;5.72;;;34.30;99.90;;;;;;21204056;27;20031;-78
2021/06/19 13:26:41;;;;;;;17.83;5.88;;;33.90;99.90;;;;;;21198688;27;20038;-78
2021/06/19 13:36:44;;;;;;;11.65;5.03;;;33.30;99.90;;;;;;21232373;27;20043;-79
2021/06/19 13:46:48;;;;;;;12.07;5.05;;;33.90;99.90;;;;;;21252736;27;20042;-79
2021/06/19 13:56:49;;;;;;;16.30;4.88;;;33.90;99.90;;;;;;21267537;27;20108;-78
2021/06/19 14:06:50;;;;;;;12.27;5.28;;;34.10;99.90;;;;;;21267665;27;20034;-77
2021/06/19 14:16:51;;;;;;;12.55;4.78;;;32.90;99.90;;;;;;21244972;27;20106;-78
2021/06/19 14:27:00;;;;;;;13.82;5.05;;;32.80;99.90;;;;;;21243384;27;20078;-76
2021/06/19 14:37:01;;;;;;;15.70;4.67;;;33.00;99.90;;;;;;21254027;27;20437;-76
2021/06/19 14:47:01;;;;;;;18.45;4.78;;;33.50;99.90;;;;;;21248625;27;20039;-78
2021/06/19 14:57:03;;;;;;;18.10;5.20;;;33.30;99.90;;;;;;21276366;27;20050;-78
2021/06/19 15:07:04;;;;;;;15.65;4.72;;;33.60;99.90;;;;;;21272071;27;20063;-78
2021/06/19 15:17:05;;;;;;;20.48;5.75;;;33.40;99.90;;;;;;21277100;27;20482;-76
2021/06/19 15:27:10;;;;;;;16.67;5.05;;;33.30;99.90;;;;;;21268368;27;20047;-77
2021/06/19 15:37:11;;;;;;;16.50;5.63;;;33.20;99.90;;;;;;21250514;27;20464;-77
2021/06/19 15:47:12;;;;;;;11.88;5.35;;;33.20;99.90;;;;;;21269173;27;20031;-77
2021/06/19 15:57:13;;;;;;;22.33;5.07;;;33.00;99.90;;;;;;21270284;27;20130;-78
2021/06/19 16:07:13;;;;;;;13.43;5.57;;;33.20;99.90;;;;;;21263618;27;20417;-77
2021/06/19 16:17:14;;;;;;;12.57;5.63;;;32.20;99.90;;;;;;21232330;27;20518;-75
2021/06/19 16:27:15;;;;;;;16.20;5.90;;;32.30;99.90;;;;;;21250621;27;20043;-76
2021/06/19 16:37:16;;;;;;;13.75;6.03;;;32.70;99.90;;;;;;21249377;27;20562;-77
2021/06/19 16:47:17;;;;;;;15.25;5.57;;;32.40;99.90;;;;;;21229825;27;20123;-77
2021/06/19 16:57:18;;;;;;;12.77;5.68;;;31.60;99.90;;;;;;21180426;27;20068;-77
2021/06/19 17:07:19;;;;;;;17.88;6.72;;;31.50;99.90;;;;;;21161191;28;20497;-76
2021/06/19 17:17:19;;;;;;;17.70;5.43;;;30.50;99.90;;;;;;21161167;28;20063;-76
2021/06/19 17:27:20;;;;;;;11.93;5.70;;;29.90;99.90;;;;;;21159493;28;20043;-77
2021/06/19 17:37:21;;;;;;;20.58;6.47;;;29.50;99.90;;;;;;21160850;28;20036;-78
2021/06/19 17:47:22;;;;;;;18.92;6.35;;;29.20;99.90;;;;;;21219909;27;20031;-77
2021/06/19 17:57:28;;;;;;;14.15;6.80;;;28.80;99.90;;;;;;21216497;27;20451;-77
2021/06/19 18:07:29;;;;;;;80.07;20.63;;;28.40;99.90;;;;;;21178610;27;20031;-76
2021/06/19 18:17:30;;;;;;;30.63;7.00;;;28.10;99.90;;;;;;21214099;27;20050;-76
2021/06/19 18:27:33;;;;;;;17.15;7.13;;;27.70;99.90;;;;;;21269172;27;20131;-78
2021/06/19 18:37:34;;;;;;;31.50;9.90;;;27.60;99.90;;;;;;21215974;27;20043;-76
2021/06/19 18:47:36;;;;;;;21.42;8.63;;;27.50;99.90;;;;;;21221329;27;20119;-76
2021/06/19 18:57:38;;;;;;;21.70;7.68;;;27.40;99.90;;;;;;21206070;22;20059;-83
2021/06/19 19:07:39;;;;;;;19.20;8.50;;;26.80;99.90;;;;;;21104255;28;20051;-82
2021/06/19 19:17:41;;;;;;;23.85;8.65;;;25.60;99.90;;;;;;21127695;28;20048;-83
2021/06/19 19:27:43;;;;;;;17.45;8.10;;;25.40;99.90;;;;;;21080077;28;20040;-83
2021/06/19 19:37:44;;;;;;;16.80;8.13;;;25.50;99.90;;;;;;21090508;28;20044;-84
2021/06/19 19:47:44;;;;;;;;;;;25.10;99.90;;;;;;21074946;28;20046;-82
2021/06/19 19:57:46;;;;;;;17.33;9.32;;;24.90;99.90;;;;;;21091245;28;19919;-82
2021/06/19 20:07:47;;;;;;;14.70;8.35;;;24.90;99.90;;;;;;21146999;28;20031;-81
2021/06/19 20:17:47;;;;;;;20.55;9.48;;;25.00;99.90;;;;;;21176654;28;20050;-81
2021/06/19 20:27:49;;;;;;;25.97;9.23;;;24.20;99.90;;;;;;21149849;28;20032;-83
2021/06/19 20:37:49;;;;;;;;;;;24.30;99.90;;;;;;21158142;28;20284;-81
2021/06/19 20:47:50;;;;;;;25.00;9.18;;;24.50;99.90;;;;;;21159644;28;19955;-84
2021/06/19 20:57:55;;;;;;;;;;;24.30;99.90;;;;;;21071384;28;20039;-82
2021/06/19 21:07:56;;;;;;;15.25;8.45;;;24.10;99.90;;;;;;21080688;27;19953;-83
2021/06/19 21:17:57;;;;;;;13.55;9.18;;;24.00;99.90;;;;;;21069236;28;20127;-81
2021/06/19 21:27:58;;;;;;;20.08;10.40;;;23.90;99.90;;;;;;21119805;28;20066;-80
2021/06/19 21:37:59;;;;;;;23.83;9.73;;;23.50;99.90;;;;;;21155868;28;20042;-82
2021/06/19 21:48:00;;;;;;;22.40;11.13;;;23.40;99.90;;;;;;21114468;28;20059;-79
2021/06/19 21:58:02;;;;;;;20.53;10.20;;;23.10;99.90;;;;;;21064548;28;20054;-80
2021/06/19 22:08:04;;;;;;;20.15;9.77;;;23.40;99.90;;;;;;21064118;28;20052;-83
2021/06/19 22:18:07;;;;;;;19.10;10.32;;;23.30;99.90;;;;;;21098889;28;20043;-81
2021/06/19 22:28:08;;;;;;;19.92;9.88;;;23.20;99.90;;;;;;21073558;28;20511;-82
2021/06/19 22:38:09;;;;;;;20.52;9.80;;;22.80;99.90;;;;;;21099249;28;20062;-80
2021/06/19 22:48:12;;;;;;;12.38;8.82;;;22.70;99.90;;;;;;21092869;28;20048;-81
2021/06/19 22:58:13;;;;;;;14.60;9.93;;;22.90;99.90;;;;;;21132390;28;20046;-81
2021/06/19 23:08:16;;;;;;;;;;;22.90;99.90;;;;;;21154530;28;20677;-80
2021/06/19 23:18:16;;;;;;;;;;;22.60;99.90;;;;;;21159467;28;19998;-80
2021/06/19 23:28:17;;;;;;;24.33;12.55;;;22.30;99.90;;;;;;21162663;28;19958;-79
2021/06/19 23:38:18;;;;;;;23.83;11.30;;;21.70;99.90;;;;;;21146503;28;20326;-79
2021/06/19 23:48:19;;;;;;;21.47;11.27;;;21.70;99.90;;;;;;21123265;28;20039;-79
2021/06/19 23:58:20;;;;;;;25.63;10.47;;;22.10;99.90;;;;;;21151580;28;20130;-80
